sensor_id;sensor_type;location;lat;lon;timestamp;temperature;humidity
33901;DHT22;20193;49.810;6.418;2022-08-01T00:00:04;22.40;78.40
33901;DHT22;20193;49.810;6.418;2022-08-01T00:02:30;22.40;78.10
33901;DHT22;20193;49.810;6.418;2022-08-01T00:04:57;22.30;77.80
33901;DHT22;20193;49.810;6.418;2022-08-01T00:07:22;22.30;77.70
33901;DHT22;20193;49.810;6.418;2022-08-01T00:09:48;22.20;77.70
33901;DHT22;20193;49.810;6.418;2022-08-01T00:12:14;22.20;77.70
33901;DHT22;20193;49.810;6.418;2022-08-01T00:14:39;22.10;77.70
33901;DHT22;20193;49.810;6.418;2022-08-01T00:17:05;22.00;77.80
33901;DHT22;20193;49.810;6.418;2022-08-01T00:19:31;22.00;78.00
33901;DHT22;20193;49.810;6.418;2022-08-01T00:21:57;21.90;78.20
33901;DHT22;20193;49.810;6.418;2022-08-01T00:24:22;21.80;78.10
33901;DHT22;20193;49.810;6.418;2022-08-01T00:26:48;21.80;78.30
33901;DHT22;20193;49.810;6.418;2022-08-01T00:29:14;21.70;78.40
33901;DHT22;20193;49.810;6.418;2022-08-01T00:31:39;21.60;78.70
33901;DHT22;20193;49.810;6.418;2022-08-01T00:34:05;21.50;78.70
33901;DHT22;20193;49.810;6.418;2022-08-01T00:36:31;21.50;78.90
33901;DHT22;20193;49.810;6.418;2022-08-01T00:38:56;21.50;79.10
33901;DHT22;20193;49.810;6.418;2022-08-01T00:41:22;21.40;79.20
33901;DHT22;20193;49.810;6.418;2022-08-01T00:43:47;21.30;79.20
33901;DHT22;20193;49.810;6.418;2022-08-01T00:46:13;21.20;79.20
33901;DHT22;20193;49.810;6.418;2022-08-01T00:48:39;21.20;79.40
33901;DHT22;20193;49.810;6.418;2022-08-01T00:51:05;21.10;79.50
33901;DHT22;20193;49.810;6.418;2022-08-01T00:53:31;21.00;79.60
33901;DHT22;20193;49.810;6.418;2022-08-01T00:55:57;21.00;79.80
33901;DHT22;20193;49.810;6.418;2022-08-01T00:58:23;20.90;80.00
33901;DHT22;20193;49.810;6.418;2022-08-01T01:00:48;20.90;80.20
33901;DHT22;20193;49.810;6.418;2022-08-01T01:03:14;20.80;80.40
33901;DHT22;20193;49.810;6.418;2022-08-01T01:05:48;20.80;80.60
33901;DHT22;20193;49.810;6.418;2022-08-01T01:08:24;20.70;80.80
33901;DHT22;20193;49.810;6.418;2022-08-01T01:10:56;20.70;81.00
33901;DHT22;20193;49.810;6.418;2022-08-01T01:13:26;20.60;81.10
33901;DHT22;20193;49.810;6.418;2022-08-01T01:16:03;20.60;81.30
33901;DHT22;20193;49.810;6.418;2022-08-01T01:18:37;20.50;81.40
33901;DHT22;20193;49.810;6.418;2022-08-01T01:24:07;20.40;81.80
33901;DHT22;20193;49.810;6.418;2022-08-01T01:29:44;20.30;82.00
33901;DHT22;20193;49.810;6.418;2022-08-01T01:34:44;20.20;82.70
33901;DHT22;20193;49.810;6.418;2022-08-01T01:37:14;20.20;82.40
33901;DHT22;20193;49.810;6.418;2022-08-01T01:39:41;20.10;82.40
33901;DHT22;20193;49.810;6.418;2022-08-01T01:42:08;20.10;82.60
33901;DHT22;20193;49.810;6.418;2022-08-01T01:44:36;20.00;82.70
33901;DHT22;20193;49.810;6.418;2022-08-01T01:47:03;20.00;82.90
33901;DHT22;20193;49.810;6.418;2022-08-01T01:49:30;19.90;83.00
33901;DHT22;20193;49.810;6.418;2022-08-01T01:51:58;19.90;83.20
33901;DHT22;20193;49.810;6.418;2022-08-01T01:54:28;19.90;83.40
33901;DHT22;20193;49.810;6.418;2022-08-01T01:56:58;19.80;83.40
33901;DHT22;20193;49.810;6.418;2022-08-01T01:59:32;19.80;83.60
33901;DHT22;20193;49.810;6.418;2022-08-01T02:02:02;19.80;84.30
33901;DHT22;20193;49.810;6.418;2022-08-01T02:04:29;19.70;83.70
33901;DHT22;20193;49.810;6.418;2022-08-01T02:06:56;19.70;83.90
33901;DHT22;20193;49.810;6.418;2022-08-01T02:09:23;19.60;83.90
33901;DHT22;20193;49.810;6.418;2022-08-01T02:11:53;19.60;84.10
33901;DHT22;20193;49.810;6.418;2022-08-01T02:14:20;19.50;84.20
33901;DHT22;20193;49.810;6.418;2022-08-01T02:16:49;19.50;84.30
33901;DHT22;20193;49.810;6.418;2022-08-01T02:19:19;19.50;84.60
33901;DHT22;20193;49.810;6.418;2022-08-01T02:22:16;19.40;84.90
33901;DHT22;20193;49.810;6.418;2022-08-01T02:25:10;19.40;85.10
33901;DHT22;20193;49.810;6.418;2022-08-01T02:27:59;19.40;85.50
33901;DHT22;20193;49.810;6.418;2022-08-01T02:30:32;19.40;85.80
33901;DHT22;20193;49.810;6.418;2022-08-01T02:33:06;19.40;85.80
33901;DHT22;20193;49.810;6.418;2022-08-01T02:35:38;19.30;85.90
33901;DHT22;20193;49.810;6.418;2022-08-01T02:38:06;19.30;86.00
33901;DHT22;20193;49.810;6.418;2022-08-01T02:40:33;19.30;86.20
33901;DHT22;20193;49.810;6.418;2022-08-01T02:43:03;19.20;86.20
33901;DHT22;20193;49.810;6.418;2022-08-01T02:45:32;19.20;86.20
33901;DHT22;20193;49.810;6.418;2022-08-01T02:48:07;19.20;86.40
33901;DHT22;20193;49.810;6.418;2022-08-01T02:50:36;19.10;86.40
33901;DHT22;20193;49.810;6.418;2022-08-01T02:53:02;19.10;86.40
33901;DHT22;20193;49.810;6.418;2022-08-01T02:55:30;19.10;86.50
33901;DHT22;20193;49.810;6.418;2022-08-01T02:58:00;19.00;86.50
33901;DHT22;20193;49.810;6.418;2022-08-01T03:00:28;19.00;86.70
33901;DHT22;20193;49.810;6.418;2022-08-01T03:02:56;18.90;86.70
33901;DHT22;20193;49.810;6.418;2022-08-01T03:05:24;18.90;86.90
33901;DHT22;20193;49.810;6.418;2022-08-01T03:07:51;18.90;87.00
33901;DHT22;20193;49.810;6.418;2022-08-01T03:10:18;18.90;87.00
33901;DHT22;20193;49.810;6.418;2022-08-01T03:12:45;18.80;87.10
33901;DHT22;20193;49.810;6.418;2022-08-01T03:15:13;18.80;87.20
33901;DHT22;20193;49.810;6.418;2022-08-01T03:17:41;18.70;87.20
33901;DHT22;20193;49.810;6.418;2022-08-01T03:20:09;18.70;87.30
33901;DHT22;20193;49.810;6.418;2022-08-01T03:22:37;18.70;87.60
33901;DHT22;20193;49.810;6.418;2022-08-01T03:25:05;18.70;87.80
33901;DHT22;20193;49.810;6.418;2022-08-01T03:27:32;18.60;87.90
33901;DHT22;20193;49.810;6.418;2022-08-01T03:29:59;18.60;88.00
33901;DHT22;20193;49.810;6.418;2022-08-01T03:32:28;18.60;88.10
33901;DHT22;20193;49.810;6.418;2022-08-01T03:34:55;18.60;88.40
33901;DHT22;20193;49.810;6.418;2022-08-01T03:37:38;18.60;89.30
33901;DHT22;20193;49.810;6.418;2022-08-01T03:40:09;18.60;88.90
33901;DHT22;20193;49.810;6.418;2022-08-01T03:42:46;18.50;89.00
33901;DHT22;20193;49.810;6.418;2022-08-01T03:45:21;18.50;89.00
33901;DHT22;20193;49.810;6.418;2022-08-01T03:47:50;18.50;89.10
33901;DHT22;20193;49.810;6.418;2022-08-01T03:50:20;18.50;89.20
33901;DHT22;20193;49.810;6.418;2022-08-01T03:52:47;18.40;89.30
33901;DHT22;20193;49.810;6.418;2022-08-01T03:55:16;18.40;89.40
33901;DHT22;20193;49.810;6.418;2022-08-01T03:57:45;18.40;89.60
33901;DHT22;20193;49.810;6.418;2022-08-01T04:00:12;18.40;90.00
33901;DHT22;20193;49.810;6.418;2022-08-01T04:02:38;18.30;90.00
33901;DHT22;20193;49.810;6.418;2022-08-01T04:05:07;18.30;90.10
33901;DHT22;20193;49.810;6.418;2022-08-01T04:07:33;18.30;90.10
33901;DHT22;20193;49.810;6.418;2022-08-01T04:10:05;18.20;90.10
33901;DHT22;20193;49.810;6.418;2022-08-01T04:12:31;18.30;90.40
33901;DHT22;20193;49.810;6.418;2022-08-01T04:14:58;18.20;90.20
33901;DHT22;20193;49.810;6.418;2022-08-01T04:17:24;18.20;90.30
33901;DHT22;20193;49.810;6.418;2022-08-01T04:19:50;18.10;90.30
33901;DHT22;20193;49.810;6.418;2022-08-01T04:22:16;18.10;90.40
33901;DHT22;20193;49.810;6.418;2022-08-01T04:24:44;18.10;90.50
33901;DHT22;20193;49.810;6.418;2022-08-01T04:27:13;18.10;90.50
33901;DHT22;20193;49.810;6.418;2022-08-01T04:29:39;18.10;90.60
33901;DHT22;20193;49.810;6.418;2022-08-01T04:32:08;18.10;90.70
33901;DHT22;20193;49.810;6.418;2022-08-01T04:34:38;18.10;90.80
33901;DHT22;20193;49.810;6.418;2022-08-01T04:37:08;18.10;90.90
33901;DHT22;20193;49.810;6.418;2022-08-01T04:39:36;18.10;91.10
33901;DHT22;20193;49.810;6.418;2022-08-01T04:42:04;18.10;91.20
33901;DHT22;20193;49.810;6.418;2022-08-01T04:44:31;18.10;91.30
33901;DHT22;20193;49.810;6.418;2022-08-01T04:46:59;18.20;91.40
33901;DHT22;20193;49.810;6.418;2022-08-01T04:49:25;18.20;91.50
33901;DHT22;20193;49.810;6.418;2022-08-01T04:51:55;18.30;91.70
33901;DHT22;20193;49.810;6.418;2022-08-01T04:54:26;18.30;91.70
33901;DHT22;20193;49.810;6.418;2022-08-01T04:56:53;18.40;91.90
33901;DHT22;20193;49.810;6.418;2022-08-01T04:59:24;18.40;91.90
33901;DHT22;20193;49.810;6.418;2022-08-01T05:02:05;18.50;92.00
33901;DHT22;20193;49.810;6.418;2022-08-01T05:04:31;18.60;92.10
33901;DHT22;20193;49.810;6.418;2022-08-01T05:06:57;18.60;92.10
33901;DHT22;20193;49.810;6.418;2022-08-01T05:09:22;18.70;92.20
33901;DHT22;20193;49.810;6.418;2022-08-01T05:11:48;18.70;92.20
33901;DHT22;20193;49.810;6.418;2022-08-01T05:14:14;18.90;92.30
33901;DHT22;20193;49.810;6.418;2022-08-01T05:16:39;18.90;92.30
33901;DHT22;20193;49.810;6.418;2022-08-01T05:19:05;19.00;92.30
33901;DHT22;20193;49.810;6.418;2022-08-01T05:21:30;19.10;92.30
33901;DHT22;20193;49.810;6.418;2022-08-01T05:23:56;19.20;92.30
33901;DHT22;20193;49.810;6.418;2022-08-01T05:26:23;19.20;92.30
33901;DHT22;20193;49.810;6.418;2022-08-01T05:28:48;19.30;92.30
33901;DHT22;20193;49.810;6.418;2022-08-01T05:31:14;19.40;92.20
33901;DHT22;20193;49.810;6.418;2022-08-01T05:33:40;19.40;92.10
33901;DHT22;20193;49.810;6.418;2022-08-01T05:36:05;19.50;92.10
33901;DHT22;20193;49.810;6.418;2022-08-01T05:38:31;19.60;92.10
33901;DHT22;20193;49.810;6.418;2022-08-01T05:40:56;19.60;91.90
33901;DHT22;20193;49.810;6.418;2022-08-01T05:43:22;19.70;91.90
33901;DHT22;20193;49.810;6.418;2022-08-01T05:45:48;19.80;91.90
33901;DHT22;20193;49.810;6.418;2022-08-01T05:48:14;19.90;91.90
33901;DHT22;20193;49.810;6.418;2022-08-01T05:50:39;19.90;91.90
33901;DHT22;20193;49.810;6.418;2022-08-01T05:53:05;20.00;91.80
33901;DHT22;20193;49.810;6.418;2022-08-01T05:55:31;20.10;91.80
33901;DHT22;20193;49.810;6.418;2022-08-01T05:57:56;20.20;91.80
33901;DHT22;20193;49.810;6.418;2022-08-01T06:00:22;20.30;91.70
33901;DHT22;20193;49.810;6.418;2022-08-01T06:02:47;20.40;91.70
33901;DHT22;20193;49.810;6.418;2022-08-01T06:05:13;20.50;91.70
33901;DHT22;20193;49.810;6.418;2022-08-01T06:07:39;20.60;91.60
33901;DHT22;20193;49.810;6.418;2022-08-01T06:10:06;20.70;91.50
33901;DHT22;20193;49.810;6.418;2022-08-01T06:12:35;20.80;91.40
33901;DHT22;20193;49.810;6.418;2022-08-01T06:15:02;20.90;91.30
33901;DHT22;20193;49.810;6.418;2022-08-01T06:17:28;20.90;91.10
33901;DHT22;20193;49.810;6.418;2022-08-01T06:19:54;21.00;91.00
33901;DHT22;20193;49.810;6.418;2022-08-01T06:22:19;21.10;90.90
33901;DHT22;20193;49.810;6.418;2022-08-01T06:24:45;21.20;90.80
33901;DHT22;20193;49.810;6.418;2022-08-01T06:27:10;21.30;90.70
33901;DHT22;20193;49.810;6.418;2022-08-01T06:29:36;21.30;90.50
33901;DHT22;20193;49.810;6.418;2022-08-01T06:32:02;21.40;90.50
33901;DHT22;20193;49.810;6.418;2022-08-01T06:34:27;21.50;90.40
33901;DHT22;20193;49.810;6.418;2022-08-01T06:36:56;21.50;90.50
33901;DHT22;20193;49.810;6.418;2022-08-01T06:39:22;21.60;90.20
33901;DHT22;20193;49.810;6.418;2022-08-01T06:41:47;21.70;90.10
33901;DHT22;20193;49.810;6.418;2022-08-01T06:44:13;21.70;90.00
33901;DHT22;20193;49.810;6.418;2022-08-01T06:46:39;21.70;89.80
33901;DHT22;20193;49.810;6.418;2022-08-01T06:49:05;21.80;89.50
33901;DHT22;20193;49.810;6.418;2022-08-01T06:51:30;21.80;89.30
33901;DHT22;20193;49.810;6.418;2022-08-01T06:53:56;21.80;89.00
33901;DHT22;20193;49.810;6.418;2022-08-01T06:56:22;21.90;88.90
33901;DHT22;20193;49.810;6.418;2022-08-01T06:58:49;21.90;88.70
33901;DHT22;20193;49.810;6.418;2022-08-01T07:01:15;21.90;88.50
33901;DHT22;20193;49.810;6.418;2022-08-01T07:03:43;22.00;88.50
33901;DHT22;20193;49.810;6.418;2022-08-01T07:06:09;22.00;88.40
33901;DHT22;20193;49.810;6.418;2022-08-01T07:08:36;22.10;88.40
33901;DHT22;20193;49.810;6.418;2022-08-01T07:11:02;22.10;88.30
33901;DHT22;20193;49.810;6.418;2022-08-01T07:13:28;22.20;88.90
33901;DHT22;20193;49.810;6.418;2022-08-01T07:15:56;22.20;87.90
33901;DHT22;20193;49.810;6.418;2022-08-01T07:18:22;22.30;87.80
33901;DHT22;20193;49.810;6.418;2022-08-01T07:20:48;22.30;87.60
33901;DHT22;20193;49.810;6.418;2022-08-01T07:23:14;22.40;87.50
33901;DHT22;20193;49.810;6.418;2022-08-01T07:25:40;22.40;87.30
33901;DHT22;20193;49.810;6.418;2022-08-01T07:28:06;22.50;87.10
33901;DHT22;20193;49.810;6.418;2022-08-01T07:30:31;22.50;87.00
33901;DHT22;20193;49.810;6.418;2022-08-01T07:32:57;22.50;86.90
33901;DHT22;20193;49.810;6.418;2022-08-01T07:35:23;22.60;86.80
33901;DHT22;20193;49.810;6.418;2022-08-01T07:37:48;22.60;86.70
33901;DHT22;20193;49.810;6.418;2022-08-01T07:40:15;22.70;86.60
33901;DHT22;20193;49.810;6.418;2022-08-01T07:42:40;22.70;86.50
33901;DHT22;20193;49.810;6.418;2022-08-01T07:45:09;22.80;86.50
33901;DHT22;20193;49.810;6.418;2022-08-01T07:47:35;22.90;86.30
33901;DHT22;20193;49.810;6.418;2022-08-01T07:50:02;22.90;86.20
33901;DHT22;20193;49.810;6.418;2022-08-01T07:52:29;23.00;86.00
33901;DHT22;20193;49.810;6.418;2022-08-01T07:54:56;23.00;85.80
33901;DHT22;20193;49.810;6.418;2022-08-01T07:57:22;23.10;85.80
33901;DHT22;20193;49.810;6.418;2022-08-01T07:59:48;23.20;85.80
33901;DHT22;20193;49.810;6.418;2022-08-01T08:02:14;23.40;85.90
33901;DHT22;20193;49.810;6.418;2022-08-01T08:04:40;23.40;85.70
33901;DHT22;20193;49.810;6.418;2022-08-01T08:07:05;23.50;85.60
33901;DHT22;20193;49.810;6.418;2022-08-01T08:09:31;23.60;86.00
33901;DHT22;20193;49.810;6.418;2022-08-01T08:11:56;23.70;85.20
33901;DHT22;20193;49.810;6.418;2022-08-01T08:14:22;23.80;84.40
33901;DHT22;20193;49.810;6.418;2022-08-01T08:16:49;23.90;84.50
33901;DHT22;20193;49.810;6.418;2022-08-01T08:19:15;24.00;84.50
33901;DHT22;20193;49.810;6.418;2022-08-01T08:21:41;24.10;84.00
33901;DHT22;20193;49.810;6.418;2022-08-01T08:24:08;24.10;83.20
33901;DHT22;20193;49.810;6.418;2022-08-01T08:26:48;24.20;83.10
33901;DHT22;20193;49.810;6.418;2022-08-01T08:29:14;24.30;83.10
33901;DHT22;20193;49.810;6.418;2022-08-01T08:31:40;24.40;82.20
33901;DHT22;20193;49.810;6.418;2022-08-01T08:34:06;24.50;81.50
33901;DHT22;20193;49.810;6.418;2022-08-01T08:36:33;24.50;80.70
33901;DHT22;20193;49.810;6.418;2022-08-01T08:38:59;24.60;80.40
33901;DHT22;20193;49.810;6.418;2022-08-01T08:41:34;24.70;79.90
33901;DHT22;20193;49.810;6.418;2022-08-01T08:44:04;24.80;80.00
33901;DHT22;20193;49.810;6.418;2022-08-01T08:46:31;24.90;79.40
33901;DHT22;20193;49.810;6.418;2022-08-01T08:48:58;25.00;78.90
33901;DHT22;20193;49.810;6.418;2022-08-01T08:51:26;25.20;78.30
33901;DHT22;20193;49.810;6.418;2022-08-01T08:53:57;25.30;78.50
33901;DHT22;20193;49.810;6.418;2022-08-01T08:56:24;25.50;77.10
33901;DHT22;20193;49.810;6.418;2022-08-01T08:58:51;25.60;77.30
33901;DHT22;20193;49.810;6.418;2022-08-01T09:01:16;25.70;76.30
33901;DHT22;20193;49.810;6.418;2022-08-01T09:03:43;25.80;75.90
33901;DHT22;20193;49.810;6.418;2022-08-01T09:06:09;25.90;75.10
33901;DHT22;20193;49.810;6.418;2022-08-01T09:08:35;26.00;74.70
33901;DHT22;20193;49.810;6.418;2022-08-01T09:11:01;26.10;74.30
33901;DHT22;20193;49.810;6.418;2022-08-01T09:13:27;26.10;73.50
33901;DHT22;20193;49.810;6.418;2022-08-01T09:15:54;26.10;73.50
33901;DHT22;20193;49.810;6.418;2022-08-01T09:23:39;26.30;72.90
33901;DHT22;20193;49.810;6.418;2022-08-01T09:26:18;26.30;72.50
33901;DHT22;20193;49.810;6.418;2022-08-01T09:28:44;26.20;72.60
33901;DHT22;20193;49.810;6.418;2022-08-01T09:31:19;26.30;72.90
33901;DHT22;20193;49.810;6.418;2022-08-01T09:33:50;26.30;72.60
33901;DHT22;20193;49.810;6.418;2022-08-01T09:36:16;26.40;72.20
33901;DHT22;20193;49.810;6.418;2022-08-01T09:38:42;26.50;72.10
33901;DHT22;20193;49.810;6.418;2022-08-01T09:41:08;26.50;71.70
33901;DHT22;20193;49.810;6.418;2022-08-01T09:43:34;26.60;71.30
33901;DHT22;20193;49.810;6.418;2022-08-01T09:46:05;26.60;71.10
33901;DHT22;20193;49.810;6.418;2022-08-01T09:48:33;26.70;70.90
33901;DHT22;20193;49.810;6.418;2022-08-01T09:51:00;26.80;70.70
33901;DHT22;20193;49.810;6.418;2022-08-01T09:53:26;26.80;70.30
33901;DHT22;20193;49.810;6.418;2022-08-01T09:55:52;26.90;69.80
33901;DHT22;20193;49.810;6.418;2022-08-01T09:58:19;27.00;69.90
33901;DHT22;20193;49.810;6.418;2022-08-01T10:00:58;27.00;69.30
33901;DHT22;20193;49.810;6.418;2022-08-01T10:03:26;27.10;68.80
33901;DHT22;20193;49.810;6.418;2022-08-01T10:05:52;27.10;68.80
33901;DHT22;20193;49.810;6.418;2022-08-01T10:08:22;27.10;68.70
33901;DHT22;20193;49.810;6.418;2022-08-01T10:11:11;27.30;68.60
33901;DHT22;20193;49.810;6.418;2022-08-01T10:13:37;27.30;67.80
33901;DHT22;20193;49.810;6.418;2022-08-01T10:16:03;27.40;67.40
33901;DHT22;20193;49.810;6.418;2022-08-01T10:18:32;27.40;67.10
33901;DHT22;20193;49.810;6.418;2022-08-01T10:21:01;27.40;66.70
33901;DHT22;20193;49.810;6.418;2022-08-01T10:23:27;27.40;66.60
33901;DHT22;20193;49.810;6.418;2022-08-01T10:25:55;27.50;67.10
33901;DHT22;20193;49.810;6.418;2022-08-01T10:28:25;27.50;66.30
33901;DHT22;20193;49.810;6.418;2022-08-01T10:30:51;27.60;66.20
33901;DHT22;20193;49.810;6.418;2022-08-01T10:33:18;27.70;65.50
33901;DHT22;20193;49.810;6.418;2022-08-01T10:35:45;27.80;65.50
33901;DHT22;20193;49.810;6.418;2022-08-01T10:38:11;27.90;65.00
33901;DHT22;20193;49.810;6.418;2022-08-01T10:40:38;28.00;64.40
33901;DHT22;20193;49.810;6.418;2022-08-01T10:43:04;28.10;64.40
33901;DHT22;20193;49.810;6.418;2022-08-01T10:45:30;28.20;64.00
33901;DHT22;20193;49.810;6.418;2022-08-01T10:51:12;28.50;62.80
33901;DHT22;20193;49.810;6.418;2022-08-01T10:53:21;28.60;62.40
33901;DHT22;20193;49.810;6.418;2022-08-01T10:56:05;28.80;62.30
33901;DHT22;20193;49.810;6.418;2022-08-01T10:58:38;28.90;61.20
33901;DHT22;20193;49.810;6.418;2022-08-01T11:01:25;29.00;60.80
33901;DHT22;20193;49.810;6.418;2022-08-01T11:09:03;29.30;60.10
33901;DHT22;20193;49.810;6.418;2022-08-01T11:11:29;29.40;59.20
33901;DHT22;20193;49.810;6.418;2022-08-01T11:14:04;29.50;58.80
33901;DHT22;20193;49.810;6.418;2022-08-01T11:16:36;29.60;58.90
33901;DHT22;20193;49.810;6.418;2022-08-01T11:19:03;29.60;58.80
33901;DHT22;20193;49.810;6.418;2022-08-01T11:27:21;29.90;58.00
33901;DHT22;20193;49.810;6.418;2022-08-01T11:32:55;30.10;57.50
33901;DHT22;20193;49.810;6.418;2022-08-01T11:35:22;30.20;57.10
33901;DHT22;20193;49.810;6.418;2022-08-01T11:37:53;30.30;56.70
33901;DHT22;20193;49.810;6.418;2022-08-01T11:40:27;30.40;56.00
33901;DHT22;20193;49.810;6.418;2022-08-01T11:45:57;30.50;55.40
33901;DHT22;20193;49.810;6.418;2022-08-01T11:48:25;30.50;55.40
33901;DHT22;20193;49.810;6.418;2022-08-01T11:50:52;30.50;55.40
33901;DHT22;20193;49.810;6.418;2022-08-01T11:53:18;30.60;55.40
33901;DHT22;20193;49.810;6.418;2022-08-01T11:55:51;30.60;55.20
33901;DHT22;20193;49.810;6.418;2022-08-01T11:58:26;30.70;54.60
33901;DHT22;20193;49.810;6.418;2022-08-01T12:01:02;30.60;54.90
33901;DHT22;20193;49.810;6.418;2022-08-01T12:03:32;30.70;54.60
33901;DHT22;20193;49.810;6.418;2022-08-01T12:05:58;30.70;54.70
33901;DHT22;20193;49.810;6.418;2022-08-01T12:08:29;30.70;54.50
33901;DHT22;20193;49.810;6.418;2022-08-01T12:10:55;30.80;54.30
33901;DHT22;20193;49.810;6.418;2022-08-01T12:13:22;30.80;54.30
33901;DHT22;20193;49.810;6.418;2022-08-01T12:15:48;30.80;54.20
33901;DHT22;20193;49.810;6.418;2022-08-01T12:18:16;30.80;54.30
33901;DHT22;20193;49.810;6.418;2022-08-01T12:20:44;30.90;53.70
33901;DHT22;20193;49.810;6.418;2022-08-01T12:23:13;30.80;53.80
33901;DHT22;20193;49.810;6.418;2022-08-01T12:25:39;30.80;54.00
33901;DHT22;20193;49.810;6.418;2022-08-01T12:28:06;30.80;54.10
33901;DHT22;20193;49.810;6.418;2022-08-01T12:30:34;30.80;54.30
33901;DHT22;20193;49.810;6.418;2022-08-01T12:33:08;30.80;54.20
33901;DHT22;20193;49.810;6.418;2022-08-01T12:35:35;30.90;54.10
33901;DHT22;20193;49.810;6.418;2022-08-01T12:38:22;30.90;53.90
33901;DHT22;20193;49.810;6.418;2022-08-01T12:40:48;30.80;53.90
33901;DHT22;20193;49.810;6.418;2022-08-01T12:43:18;30.90;53.70
33901;DHT22;20193;49.810;6.418;2022-08-01T12:45:46;30.90;54.10
33901;DHT22;20193;49.810;6.418;2022-08-01T12:48:13;31.00;54.00
33901;DHT22;20193;49.810;6.418;2022-08-01T12:50:45;31.00;53.80
33901;DHT22;20193;49.810;6.418;2022-08-01T12:53:12;31.10;53.60
33901;DHT22;20193;49.810;6.418;2022-08-01T12:55:55;31.20;53.20
33901;DHT22;20193;49.810;6.418;2022-08-01T12:58:21;31.20;52.60
33901;DHT22;20193;49.810;6.418;2022-08-01T13:01:03;31.30;53.40
33901;DHT22;20193;49.810;6.418;2022-08-01T13:03:29;31.30;52.50
33901;DHT22;20193;49.810;6.418;2022-08-01T13:05:56;31.30;52.80
33901;DHT22;20193;49.810;6.418;2022-08-01T13:08:31;31.40;52.70
33901;DHT22;20193;49.810;6.418;2022-08-01T13:11:23;31.50;52.70
33901;DHT22;20193;49.810;6.418;2022-08-01T13:13:52;31.50;52.80
33901;DHT22;20193;49.810;6.418;2022-08-01T13:16:23;31.50;52.60
33901;DHT22;20193;49.810;6.418;2022-08-01T13:18:53;31.50;52.60
33901;DHT22;20193;49.810;6.418;2022-08-01T13:21:25;31.60;52.80
33901;DHT22;20193;49.810;6.418;2022-08-01T13:24:07;31.50;52.40
33901;DHT22;20193;49.810;6.418;2022-08-01T13:26:48;31.60;52.70
33901;DHT22;20193;49.810;6.418;2022-08-01T13:29:19;31.60;52.60
33901;DHT22;20193;49.810;6.418;2022-08-01T13:31:46;31.60;52.40
33901;DHT22;20193;49.810;6.418;2022-08-01T13:34:12;31.70;52.30
33901;DHT22;20193;49.810;6.418;2022-08-01T13:36:39;31.70;52.10
33901;DHT22;20193;49.810;6.418;2022-08-01T13:39:05;31.70;51.90
33901;DHT22;20193;49.810;6.418;2022-08-01T13:41:50;31.70;52.00
33901;DHT22;20193;49.810;6.418;2022-08-01T13:44:16;31.80;51.90
33901;DHT22;20193;49.810;6.418;2022-08-01T13:46:42;31.80;51.70
33901;DHT22;20193;49.810;6.418;2022-08-01T13:49:10;31.90;51.50
33901;DHT22;20193;49.810;6.418;2022-08-01T13:51:37;31.80;51.20
33901;DHT22;20193;49.810;6.418;2022-08-01T13:54:04;31.90;51.30
33901;DHT22;20193;49.810;6.418;2022-08-01T13:56:30;31.80;51.40
33901;DHT22;20193;49.810;6.418;2022-08-01T13:58:56;31.80;51.50
33901;DHT22;20193;49.810;6.418;2022-08-01T14:01:22;31.80;51.20
33901;DHT22;20193;49.810;6.418;2022-08-01T14:03:48;31.80;51.20
33901;DHT22;20193;49.810;6.418;2022-08-01T14:06:14;31.80;51.50
33901;DHT22;20193;49.810;6.418;2022-08-01T14:08:42;31.80;51.60
33901;DHT22;20193;49.810;6.418;2022-08-01T14:11:08;31.80;51.60
33901;DHT22;20193;49.810;6.418;2022-08-01T14:13:34;31.70;51.30
33901;DHT22;20193;49.810;6.418;2022-08-01T14:16:04;31.60;51.60
33901;DHT22;20193;49.810;6.418;2022-08-01T14:18:30;31.60;51.80
33901;DHT22;20193;49.810;6.418;2022-08-01T14:20:55;31.50;52.00
33901;DHT22;20193;49.810;6.418;2022-08-01T14:23:24;31.30;51.90
33901;DHT22;20193;49.810;6.418;2022-08-01T14:25:50;31.10;51.90
33901;DHT22;20193;49.810;6.418;2022-08-01T14:28:16;31.00;52.20
33901;DHT22;20193;49.810;6.418;2022-08-01T14:30:42;30.70;52.40
33901;DHT22;20193;49.810;6.418;2022-08-01T14:33:11;30.60;53.10
33901;DHT22;20193;49.810;6.418;2022-08-01T14:35:37;30.60;52.90
33901;DHT22;20193;49.810;6.418;2022-08-01T14:38:03;30.40;51.80
33901;DHT22;20193;49.810;6.418;2022-08-01T14:40:29;30.30;52.10
33901;DHT22;20193;49.810;6.418;2022-08-01T14:42:54;30.20;52.30
33901;DHT22;20193;49.810;6.418;2022-08-01T14:45:20;30.20;52.70
33901;DHT22;20193;49.810;6.418;2022-08-01T14:47:46;30.30;53.00
33901;DHT22;20193;49.810;6.418;2022-08-01T14:50:14;30.30;53.20
33901;DHT22;20193;49.810;6.418;2022-08-01T14:52:40;30.40;53.30
33901;DHT22;20193;49.810;6.418;2022-08-01T14:55:07;30.50;53.20
33901;DHT22;20193;49.810;6.418;2022-08-01T14:57:34;30.50;52.80
33901;DHT22;20193;49.810;6.418;2022-08-01T14:59:59;30.50;52.60
33901;DHT22;20193;49.810;6.418;2022-08-01T15:02:25;30.70;52.70
33901;DHT22;20193;49.810;6.418;2022-08-01T15:04:51;30.70;52.40
33901;DHT22;20193;49.810;6.418;2022-08-01T15:07:17;30.70;52.40
33901;DHT22;20193;49.810;6.418;2022-08-01T15:09:43;30.70;51.90
33901;DHT22;20193;49.810;6.418;2022-08-01T15:12:10;30.70;51.90
33901;DHT22;20193;49.810;6.418;2022-08-01T15:14:39;30.70;51.70
33901;DHT22;20193;49.810;6.418;2022-08-01T15:17:24;30.60;52.00
33901;DHT22;20193;49.810;6.418;2022-08-01T15:19:53;30.50;53.30
33901;DHT22;20193;49.810;6.418;2022-08-01T15:22:20;30.40;54.00
33901;DHT22;20193;49.810;6.418;2022-08-01T15:24:50;30.30;54.40
33901;DHT22;20193;49.810;6.418;2022-08-01T15:27:17;30.10;54.70
33901;DHT22;20193;49.810;6.418;2022-08-01T15:29:42;29.90;55.10
33901;DHT22;20193;49.810;6.418;2022-08-01T15:32:08;29.60;55.40
33901;DHT22;20193;49.810;6.418;2022-08-01T15:34:35;29.50;55.90
33901;DHT22;20193;49.810;6.418;2022-08-01T15:37:01;29.40;56.30
33901;DHT22;20193;49.810;6.418;2022-08-01T15:39:27;29.30;56.50
33901;DHT22;20193;49.810;6.418;2022-08-01T15:41:53;29.20;56.80
33901;DHT22;20193;49.810;6.418;2022-08-01T15:44:19;29.20;57.10
33901;DHT22;20193;49.810;6.418;2022-08-01T15:46:49;29.10;57.20
33901;DHT22;20193;49.810;6.418;2022-08-01T15:49:15;29.10;57.30
33901;DHT22;20193;49.810;6.418;2022-08-01T15:51:41;29.00;57.80
33901;DHT22;20193;49.810;6.418;2022-08-01T15:54:07;29.00;57.60
33901;DHT22;20193;49.810;6.418;2022-08-01T15:56:33;29.00;57.80
33901;DHT22;20193;49.810;6.418;2022-08-01T15:58:59;28.90;58.00
33901;DHT22;20193;49.810;6.418;2022-08-01T16:01:25;28.90;57.90
33901;DHT22;20193;49.810;6.418;2022-08-01T16:03:52;28.90;58.00
33901;DHT22;20193;49.810;6.418;2022-08-01T16:06:18;28.90;57.80
33901;DHT22;20193;49.810;6.418;2022-08-01T16:08:44;28.90;57.70